createdAt,value
2024-02-21T00:01:44.700Z,47.60
2024-02-21T00:04:12.108Z,49.22
2024-02-21T00:06:39.457Z,46.55
2024-02-21T00:09:06.808Z,50.33
2024-02-21T00:11:34.705Z,49.10
2024-02-21T00:14:02.202Z,51.03
2024-02-21T00:16:29.569Z,50.67
2024-02-21T00:18:57.110Z,49.65
2024-02-21T00:21:24.458Z,60.20
2024-02-21T00:23:51.926Z,58.58
2024-02-21T00:26:19.581Z,57.38
2024-02-21T00:28:47.060Z,54.08
2024-02-21T00:31:14.502Z,46.53
2024-02-21T00:33:42.570Z,45.88
2024-02-21T00:36:10.381Z,45.30
2024-02-21T00:38:37.674Z,45.55
2024-02-21T00:41:05.066Z,41.40
2024-02-21T00:43:32.702Z,42.55
2024-02-21T00:46:00.135Z,31.70
2024-02-21T00:48:27.639Z,32.35
2024-02-21T00:50:54.980Z,34.45
2024-02-21T00:53:25.509Z,33.50
2024-02-21T00:55:53.000Z,47.58
2024-02-21T00:58:20.480Z,49.30
2024-02-21T01:00:47.913Z,54.45
2024-02-21T01:03:15.488Z,53.40
2024-02-21T01:05:42.792Z,53.83
2024-02-21T01:08:10.213Z,53.47
2024-02-21T01:10:37.536Z,53.17
2024-02-21T01:13:04.877Z,54.20
2024-02-21T01:15:32.376Z,51.80
2024-02-21T01:17:59.954Z,51.80
2024-02-21T01:20:27.308Z,52.33
2024-02-21T01:22:54.585Z,53.10
2024-02-21T01:25:21.907Z,52.75
2024-02-21T01:27:49.254Z,55.22
2024-02-21T01:30:16.673Z,55.78
2024-02-21T01:32:43.929Z,55.83
2024-02-21T01:35:11.414Z,59.25
2024-02-21T01:37:38.962Z,50.80
2024-02-21T01:40:07.260Z,43.33
2024-02-21T01:42:39.545Z,37.55
2024-02-21T01:45:07.324Z,40.95
2024-02-21T01:47:35.004Z,40.05
2024-02-21T01:50:03.727Z,35.75
2024-02-21T01:52:31.953Z,36.50
2024-02-21T01:54:59.485Z,36.90
2024-02-21T01:57:27.558Z,37.17
2024-02-21T01:59:54.920Z,37.95
2024-02-21T02:02:22.640Z,39.10
2024-02-21T02:04:50.333Z,37.50
2024-02-21T02:07:17.765Z,39.25
2024-02-21T02:09:45.223Z,38.65
2024-02-21T02:12:12.576Z,37.10
2024-02-21T02:14:39.860Z,39.78
2024-02-21T02:17:07.264Z,38.13
2024-02-21T02:19:35.210Z,38.92
2024-02-21T02:22:17.123Z,39.33
2024-02-21T02:24:44.681Z,39.55
2024-02-21T02:27:12.064Z,40.53
2024-02-21T02:29:39.349Z,43.78
2024-02-21T02:32:07.137Z,47.90
2024-02-21T02:34:34.483Z,48.58
2024-02-21T02:37:01.926Z,46.42
2024-02-21T02:39:30.426Z,43.80
2024-02-21T02:41:57.765Z,43.78
2024-02-21T02:44:25.112Z,27.75
2024-02-21T02:46:52.473Z,22.08
2024-02-21T02:49:19.936Z,21.67
2024-02-21T02:51:47.281Z,21.92
2024-02-21T02:54:14.699Z,24.95
2024-02-21T02:56:43.382Z,25.58
2024-02-21T02:59:10.703Z,29.60
2024-02-21T03:01:39.164Z,29.80
2024-02-21T03:04:06.668Z,30.92
2024-02-21T03:06:34.354Z,31.10
2024-02-21T03:09:01.648Z,32.42
2024-02-21T03:11:31.224Z,37.75
2024-02-21T03:13:58.919Z,39.97
2024-02-21T03:16:26.781Z,37.85
2024-02-21T03:18:54.249Z,38.88
2024-02-21T03:21:21.615Z,43.28
2024-02-21T03:23:49.472Z,43.85
2024-02-21T03:26:18.456Z,47.40
2024-02-21T03:28:49.498Z,48.25
2024-02-21T03:31:16.890Z,51.10
2024-02-21T03:33:45.113Z,55.95
2024-02-21T03:36:16.650Z,52.85
2024-02-21T03:38:44.298Z,56.35
2024-02-21T03:41:11.715Z,51.35
2024-02-21T03:43:39.972Z,57.08
2024-02-21T03:46:07.949Z,51.47
2024-02-21T03:48:35.246Z,50.63
2024-02-21T03:51:02.695Z,49.35
2024-02-21T03:53:30.040Z,52.85
2024-02-21T03:55:58.063Z,57.05
2024-02-21T03:58:25.608Z,57.15
2024-02-21T04:00:53.189Z,55.60
2024-02-21T04:03:20.972Z,53.63
2024-02-21T04:05:48.365Z,46.70
2024-02-21T04:08:15.715Z,47.97
2024-02-21T04:10:43.754Z,46.17
2024-02-21T04:13:11.536Z,48.53
2024-02-21T04:15:39.459Z,49.60
2024-02-21T04:18:07.152Z,52.45
2024-02-21T04:20:36.710Z,52.38
2024-02-21T04:23:04.389Z,49.15
2024-02-21T04:25:31.744Z,49.25
2024-02-21T04:27:59.067Z,54.05
2024-02-21T04:30:26.437Z,55.42
2024-02-21T04:32:53.996Z,55.22
2024-02-21T04:35:22.024Z,56.45
2024-02-21T04:37:50.827Z,61.20
2024-02-21T04:40:18.282Z,61.00
2024-02-21T04:42:45.588Z,59.13
2024-02-21T04:45:13.009Z,59.10
2024-02-21T04:47:40.389Z,61.28
2024-02-21T04:50:08.219Z,64.72
2024-02-21T04:52:35.594Z,66.30
2024-02-21T04:55:02.912Z,69.13
2024-02-21T04:57:30.596Z,69.32
2024-02-21T04:59:57.885Z,68.13
2024-02-21T05:02:25.634Z,69.47
2024-02-21T05:04:53.894Z,75.45
2024-02-21T05:07:21.272Z,75.43
2024-02-21T05:09:48.722Z,80.28
2024-02-21T05:12:16.409Z,76.72
2024-02-21T05:14:43.666Z,66.20
2024-02-21T05:17:11.073Z,66.53
2024-02-21T05:19:38.463Z,64.28
2024-02-21T05:22:06.854Z,65.97
2024-02-21T05:24:34.231Z,62.80
2024-02-21T05:27:01.608Z,69.10
2024-02-21T05:29:28.908Z,68.00
2024-02-21T05:31:58.667Z,69.20
2024-02-21T05:34:26.932Z,66.20
2024-02-21T05:36:54.432Z,67.10
2024-02-21T05:39:23.936Z,59.70
2024-02-21T05:41:52.003Z,51.92
2024-02-21T05:44:20.153Z,51.88
2024-02-21T05:46:47.601Z,50.97
2024-02-21T05:49:15.641Z,54.00
2024-02-21T05:51:42.986Z,52.83
2024-02-21T05:54:10.259Z,50.03
2024-02-21T05:56:37.558Z,62.63
2024-02-21T05:59:04.930Z,65.50
2024-02-21T06:01:32.292Z,65.70
2024-02-21T06:03:59.639Z,66.97
2024-02-21T06:06:27.040Z,58.10
2024-02-21T06:08:54.465Z,56.17
2024-02-21T06:11:21.998Z,55.92
2024-02-21T06:13:49.455Z,53.47
2024-02-21T06:16:16.777Z,61.25
2024-02-21T06:18:44.515Z,75.10
2024-02-21T06:21:13.613Z,65.15
2024-02-21T06:23:40.903Z,54.75
2024-02-21T06:26:08.253Z,55.72
2024-02-21T06:28:35.650Z,52.15
2024-02-21T06:31:03.149Z,52.70
2024-02-21T06:33:30.595Z,54.72
2024-02-21T06:35:58.307Z,58.30
2024-02-21T06:38:25.879Z,59.53
2024-02-21T06:40:55.341Z,59.40
2024-02-21T06:43:23.437Z,58.00
2024-02-21T06:45:54.584Z,51.80
2024-02-21T06:48:22.061Z,51.63
2024-02-21T06:50:49.541Z,48.17
2024-02-21T06:53:16.924Z,48.47
2024-02-21T06:55:44.384Z,46.00
2024-02-21T06:58:13.227Z,48.08
2024-02-21T07:00:41.514Z,46.45
2024-02-21T07:03:09.019Z,47.85
2024-02-21T07:05:36.451Z,47.28
2024-02-21T07:08:04.572Z,45.50
2024-02-21T07:10:32.068Z,42.20
2024-02-21T07:12:59.384Z,41.03
2024-02-21T07:15:28.056Z,40.88
2024-02-21T07:17:55.615Z,41.50
2024-02-21T07:20:23.025Z,40.05
2024-02-21T07:22:50.583Z,41.35
2024-02-21T07:25:18.046Z,41.42
2024-02-21T07:27:46.080Z,45.65
2024-02-21T07:30:16.315Z,43.35
2024-02-21T07:32:45.394Z,40.10
2024-02-21T07:35:13.428Z,51.00
2024-02-21T07:37:41.046Z,76.70
2024-02-21T07:40:14.346Z,46.25
2024-02-21T07:42:42.184Z,46.67
2024-02-21T07:45:10.106Z,46.38
2024-02-21T07:47:38.241Z,51.08
2024-02-21T07:50:06.274Z,51.33
2024-02-21T07:52:34.374Z,43.38
2024-02-21T07:55:02.091Z,41.45
2024-02-21T07:57:29.378Z,43.17
2024-02-21T07:59:56.712Z,49.13
2024-02-21T08:02:24.101Z,47.60
2024-02-21T08:04:51.434Z,49.92
2024-02-21T08:07:18.844Z,48.25
2024-02-21T08:09:46.300Z,45.85
2024-02-21T08:12:13.685Z,45.53
2024-02-21T08:14:42.137Z,46.70
2024-02-21T08:17:09.804Z,42.90
2024-02-21T08:19:37.399Z,42.30
2024-02-21T08:22:05.234Z,40.72
2024-02-21T08:24:32.940Z,40.88
2024-02-21T08:27:00.173Z,38.55
2024-02-21T08:29:27.490Z,38.00
2024-02-21T08:31:55.085Z,37.65
2024-02-21T08:34:22.566Z,34.72
2024-02-21T08:36:49.998Z,35.10
2024-02-21T08:39:17.956Z,33.88
2024-02-21T08:41:52.619Z,35.05
2024-02-21T08:44:27.667Z,35.53
2024-02-21T08:46:55.510Z,32.85
2024-02-21T08:49:23.197Z,33.42
2024-02-21T08:51:50.649Z,34.40
2024-02-21T08:54:18.299Z,31.77
2024-02-21T08:56:45.754Z,31.33
2024-02-21T08:59:13.118Z,31.13
2024-02-21T09:01:40.627Z,31.92
2024-02-21T09:04:08.746Z,33.08
2024-02-21T09:06:40.233Z,35.90
2024-02-21T09:09:09.229Z,37.80
2024-02-21T09:11:36.789Z,38.17
2024-02-21T09:14:04.969Z,39.92
2024-02-21T09:16:33.640Z,43.95
2024-02-21T09:19:02.100Z,43.28
2024-02-21T09:21:29.634Z,42.45
2024-02-21T09:23:59.952Z,40.42
2024-02-21T09:26:28.191Z,42.77
2024-02-21T09:28:55.684Z,38.25
2024-02-21T09:31:23.171Z,38.00
2024-02-21T09:33:51.013Z,37.03
2024-02-21T09:36:18.413Z,36.40
2024-02-21T09:38:45.697Z,37.50
2024-02-21T09:41:21.643Z,38.08
2024-02-21T09:43:55.441Z,38.45
2024-02-21T09:49:26.184Z,42.80
2024-02-21T09:51:56.553Z,43.40
2024-02-21T09:54:24.059Z,45.13
2024-02-21T09:56:51.397Z,48.05
2024-02-21T09:59:19.479Z,48.90
2024-02-21T10:01:51.509Z,49.80
2024-02-21T10:04:20.005Z,48.17
2024-02-21T10:06:48.336Z,48.03
2024-02-21T10:09:29.000Z,58.28
2024-02-21T10:12:20.270Z,54.10
2024-02-21T10:14:47.706Z,64.18
2024-02-21T10:17:20.257Z,49.05
2024-02-21T10:19:48.804Z,46.67
2024-02-21T10:22:16.647Z,49.75
2024-02-21T10:24:44.208Z,47.00
2024-02-21T10:27:14.626Z,47.35
2024-02-21T10:29:42.892Z,46.47
2024-02-21T10:32:15.188Z,48.92
2024-02-21T10:34:44.300Z,47.55
2024-02-21T10:37:13.306Z,47.25
2024-02-21T10:39:42.299Z,44.35
2024-02-21T10:42:12.905Z,41.78
2024-02-21T10:44:43.324Z,44.20
2024-02-21T10:47:15.019Z,41.35
2024-02-21T10:49:46.908Z,41.85
2024-02-21T10:52:33.567Z,40.30
2024-02-21T10:55:08.258Z,42.30
2024-02-21T10:57:36.843Z,41.70
2024-02-21T11:00:09.360Z,43.22
2024-02-21T11:02:37.841Z,41.63
2024-02-21T11:05:05.990Z,38.28
2024-02-21T11:07:38.251Z,41.47
2024-02-21T11:10:08.541Z,66.65
2024-02-21T11:12:35.983Z,46.70
2024-02-21T11:15:07.440Z,47.38
2024-02-21T11:17:37.495Z,45.10
2024-02-21T11:20:15.509Z,45.55
2024-02-21T11:22:44.376Z,44.60
2024-02-21T11:25:14.641Z,43.53
2024-02-21T11:27:48.722Z,42.03
2024-02-21T11:30:17.325Z,42.03
2024-02-21T11:32:44.673Z,43.20
2024-02-21T11:35:21.108Z,43.53
2024-02-21T11:37:48.718Z,44.67
2024-02-21T11:40:16.162Z,44.00
2024-02-21T11:42:43.590Z,45.78
2024-02-21T11:45:11.321Z,45.72
2024-02-21T11:47:42.234Z,45.22
2024-02-21T11:50:13.982Z,44.00
2024-02-21T11:52:42.769Z,44.83
2024-02-21T11:55:10.796Z,47.17
2024-02-21T11:57:44.227Z,48.70
2024-02-21T12:00:21.979Z,48.35
2024-02-21T12:02:51.257Z,49.38
2024-02-21T12:05:20.435Z,46.67
2024-02-21T12:07:48.019Z,48.85
2024-02-21T12:10:15.426Z,44.15
2024-02-21T12:12:42.817Z,44.78
2024-02-21T12:15:10.562Z,43.85
2024-02-21T12:17:39.306Z,43.85
2024-02-21T12:20:10.634Z,42.97
2024-02-21T12:22:44.913Z,44.05
2024-02-21T12:25:20.145Z,45.88
2024-02-21T12:27:48.070Z,45.42
2024-02-21T12:30:15.985Z,43.30
2024-02-21T12:32:43.406Z,51.90
2024-02-21T12:35:10.973Z,42.97
2024-02-21T12:37:42.498Z,41.72
2024-02-21T12:40:11.663Z,40.53
2024-02-21T12:42:39.385Z,40.70
2024-02-21T12:45:07.060Z,41.55
2024-02-21T12:47:34.396Z,42.80
2024-02-21T12:50:04.410Z,43.15
2024-02-21T12:52:32.660Z,42.83
2024-02-21T12:55:00.142Z,43.92
2024-02-21T12:57:28.497Z,42.45
2024-02-21T12:59:56.191Z,46.00
2024-02-21T13:02:23.718Z,47.63
2024-02-21T13:04:51.414Z,57.10
2024-02-21T13:07:19.074Z,45.28
2024-02-21T13:09:46.553Z,38.97
2024-02-21T13:12:14.056Z,38.92
2024-02-21T13:14:44.802Z,42.17
2024-02-21T13:17:12.248Z,52.40
2024-02-21T13:19:39.777Z,42.90
2024-02-21T13:22:08.044Z,41.53
2024-02-21T13:24:35.443Z,40.45
2024-02-21T13:27:04.404Z,41.88
2024-02-21T13:29:31.792Z,41.83
2024-02-21T13:31:59.647Z,42.00
2024-02-21T13:34:27.288Z,41.70
2024-02-21T13:36:54.934Z,41.30
2024-02-21T13:39:22.635Z,40.42
2024-02-21T13:41:50.133Z,39.90
2024-02-21T13:44:18.339Z,42.25
2024-02-21T13:46:45.772Z,41.90
2024-02-21T13:49:13.202Z,44.65
2024-02-21T13:51:42.120Z,41.13
2024-02-21T13:54:10.488Z,41.83
2024-02-21T13:56:38.819Z,41.97
2024-02-21T13:59:06.471Z,50.72
2024-02-21T14:01:34.209Z,46.30
2024-02-21T14:04:01.633Z,40.60
2024-02-21T14:06:29.237Z,40.78
2024-02-21T14:08:56.784Z,39.22
2024-02-21T14:11:24.575Z,38.55
2024-02-21T14:13:52.264Z,41.20
2024-02-21T14:16:19.708Z,39.03
2024-02-21T14:18:47.175Z,38.25
2024-02-21T14:21:14.953Z,38.63
2024-02-21T14:23:42.415Z,39.50
2024-02-21T14:26:19.251Z,39.95
2024-02-21T14:28:47.877Z,42.28
2024-02-21T14:31:15.351Z,41.08
2024-02-21T14:33:43.100Z,39.88
2024-02-21T14:36:12.525Z,38.47
2024-02-21T14:38:40.022Z,40.92
2024-02-21T14:41:07.514Z,40.65
2024-02-21T14:43:36.244Z,41.58
2024-02-21T14:46:05.517Z,40.22
2024-02-21T14:48:33.527Z,42.33
2024-02-21T14:51:01.818Z,42.17
2024-02-21T14:53:30.491Z,42.20
2024-02-21T14:55:59.029Z,43.53
2024-02-21T14:58:27.069Z,43.15
2024-02-21T15:00:55.494Z,42.40
2024-02-21T15:03:23.128Z,43.63
2024-02-21T15:05:50.660Z,42.90
2024-02-21T15:08:19.514Z,42.88
2024-02-21T15:10:47.031Z,44.10
2024-02-21T15:13:15.552Z,142.82
2024-02-21T15:15:43.007Z,61.00
2024-02-21T15:18:10.396Z,51.78
2024-02-21T15:20:38.289Z,49.90
2024-02-21T15:23:06.364Z,45.22
2024-02-21T15:25:35.044Z,43.15
2024-02-21T15:28:05.570Z,44.17
2024-02-21T15:30:33.989Z,44.75
2024-02-21T15:33:04.377Z,50.47
2024-02-21T15:35:32.365Z,46.28
2024-02-21T15:38:00.213Z,44.55
2024-02-21T15:40:28.081Z,50.13
2024-02-21T15:42:55.612Z,46.95
2024-02-21T15:45:23.410Z,45.00
2024-02-21T15:47:51.762Z,45.00
2024-02-21T15:50:20.502Z,45.65
2024-02-21T15:52:47.938Z,43.33
2024-02-21T15:55:15.658Z,42.28
2024-02-21T15:57:43.249Z,46.00
2024-02-21T16:00:13.362Z,43.13
2024-02-21T16:02:44.329Z,42.70
2024-02-21T16:05:12.223Z,43.33
2024-02-21T16:07:39.960Z,43.47
2024-02-21T16:10:08.640Z,56.40
2024-02-21T16:12:36.178Z,45.97
2024-02-21T16:15:05.935Z,52.05
2024-02-21T16:17:33.465Z,46.22
2024-02-21T16:20:05.293Z,47.10
2024-02-21T16:25:00.280Z,43.22
2024-02-21T16:27:27.635Z,48.08
2024-02-21T16:29:54.990Z,44.88
2024-02-21T16:32:22.306Z,46.10
2024-02-21T16:34:50.156Z,46.72
2024-02-21T16:37:17.528Z,44.97
2024-02-21T16:39:45.434Z,45.65
2024-02-21T16:42:12.824Z,45.10
2024-02-21T16:44:40.181Z,44.67
2024-02-21T16:47:08.049Z,45.20
2024-02-21T16:49:37.449Z,44.80
2024-02-21T16:52:05.758Z,45.58
2024-02-21T16:54:34.155Z,45.28
2024-02-21T16:57:02.163Z,48.65
2024-02-21T16:59:29.905Z,45.53
2024-02-21T17:01:57.403Z,48.15
2024-02-21T17:04:28.073Z,47.28
2024-02-21T17:06:56.270Z,49.17
2024-02-21T17:09:23.706Z,46.30
2024-02-21T17:11:52.828Z,47.90
2024-02-21T17:14:20.812Z,48.22
2024-02-21T17:16:48.316Z,46.92
2024-02-21T17:19:16.519Z,49.35
2024-02-21T17:21:44.381Z,50.35
2024-02-21T17:24:11.945Z,52.35
2024-02-21T17:26:40.175Z,51.67
2024-02-21T17:29:08.577Z,58.13
2024-02-21T17:31:36.235Z,55.80
2024-02-21T17:34:04.266Z,52.35
2024-02-21T17:36:31.705Z,52.78
2024-02-21T17:38:59.102Z,50.38
2024-02-21T17:41:26.480Z,54.83
2024-02-21T17:43:53.906Z,57.45
2024-02-21T17:46:22.912Z,50.63
2024-02-21T17:48:50.394Z,51.28
2024-02-21T17:51:17.770Z,53.67
2024-02-21T17:53:45.255Z,51.95
2024-02-21T17:56:12.878Z,52.47
2024-02-21T17:58:40.293Z,52.75
2024-02-21T18:01:07.753Z,57.97
2024-02-21T18:03:35.187Z,59.15
2024-02-21T18:06:04.265Z,58.63
2024-02-21T18:08:32.671Z,57.30
2024-02-21T18:11:00.339Z,57.50
2024-02-21T18:13:31.438Z,56.72
2024-02-21T18:16:05.976Z,58.90
2024-02-21T18:18:33.619Z,59.28
2024-02-21T18:21:01.230Z,58.05
2024-02-21T18:23:31.129Z,58.53
2024-02-21T18:26:00.467Z,59.28
2024-02-21T18:28:28.893Z,58.25
2024-02-21T18:30:56.402Z,62.65
2024-02-21T18:33:24.099Z,61.13
2024-02-21T18:35:51.930Z,60.65
2024-02-21T18:38:19.383Z,59.33
2024-02-21T18:40:47.171Z,53.22
2024-02-21T18:43:15.834Z,56.30
2024-02-21T18:45:43.724Z,55.75
2024-02-21T18:48:14.683Z,54.20
2024-02-21T18:50:43.703Z,50.78
2024-02-21T18:53:11.383Z,48.20
2024-02-21T18:55:38.864Z,49.33
2024-02-21T18:58:06.594Z,51.53
2024-02-21T19:00:34.067Z,50.25
2024-02-21T19:03:01.441Z,49.92
2024-02-21T19:05:28.999Z,78.78
2024-02-21T19:07:56.625Z,81.40
2024-02-21T19:10:24.206Z,71.65
2024-02-21T19:12:51.667Z,61.45
2024-02-21T19:15:19.653Z,61.58
2024-02-21T19:17:47.148Z,59.30
2024-02-21T19:20:14.835Z,58.97
2024-02-21T19:22:46.859Z,58.60
2024-02-21T19:25:18.706Z,57.25
2024-02-21T19:27:46.586Z,56.63
2024-02-21T19:30:15.201Z,53.33
2024-02-21T19:32:42.966Z,53.50
2024-02-21T19:35:13.470Z,50.10
2024-02-21T19:37:41.910Z,51.80
2024-02-21T19:40:14.027Z,51.67
2024-02-21T19:42:41.926Z,50.95
2024-02-21T19:45:09.908Z,51.72
2024-02-21T19:47:37.697Z,54.90
2024-02-21T19:50:05.706Z,63.55
2024-02-21T19:52:33.146Z,63.08
2024-02-21T19:55:00.940Z,59.85
2024-02-21T19:57:28.810Z,57.83
2024-02-21T19:59:56.502Z,52.95
2024-02-21T20:02:25.296Z,52.05
2024-02-21T20:04:53.212Z,50.80
2024-02-21T20:07:23.589Z,51.90
2024-02-21T20:09:53.243Z,52.83
2024-02-21T20:12:21.781Z,49.97
2024-02-21T20:14:50.548Z,54.50
2024-02-21T20:17:18.165Z,52.22
2024-02-21T20:19:46.768Z,53.90
2024-02-21T20:22:14.167Z,51.97
2024-02-21T20:24:41.638Z,50.65
2024-02-21T20:27:09.030Z,55.65
2024-02-21T20:29:36.669Z,56.25
2024-02-21T20:32:04.988Z,59.40
2024-02-21T20:34:34.049Z,59.65
2024-02-21T20:37:01.972Z,58.35
2024-02-21T20:39:30.295Z,59.75
2024-02-21T20:41:58.532Z,55.95
2024-02-21T20:44:26.285Z,59.03
2024-02-21T20:46:54.683Z,58.65
2024-02-21T20:49:22.621Z,56.38
2024-02-21T20:51:50.153Z,56.10
2024-02-21T20:54:17.621Z,52.30
2024-02-21T20:56:45.610Z,52.47
2024-02-21T20:59:19.497Z,49.80
2024-02-21T21:01:54.181Z,50.65
2024-02-21T21:04:29.410Z,52.47
2024-02-21T21:06:57.091Z,51.67
2024-02-21T21:09:24.638Z,52.03
2024-02-21T21:11:52.152Z,50.40
2024-02-21T21:14:20.004Z,51.92
2024-02-21T21:16:47.753Z,68.22
2024-02-21T21:19:15.467Z,69.65
2024-02-21T21:21:45.975Z,76.85
2024-02-21T21:24:18.638Z,73.38
2024-02-21T21:26:47.003Z,85.88
2024-02-21T21:29:14.885Z,79.47
2024-02-21T21:31:45.119Z,72.65
2024-02-21T21:34:14.061Z,68.10
2024-02-21T21:36:41.690Z,66.00
2024-02-21T21:39:09.336Z,67.22
2024-02-21T21:41:36.932Z,63.67
2024-02-21T21:44:04.528Z,59.70
2024-02-21T21:46:32.383Z,57.63
2024-02-21T21:48:59.999Z,51.20
2024-02-21T21:51:30.390Z,47.78
2024-02-21T21:53:57.925Z,46.97
2024-02-21T21:56:25.297Z,48.70
2024-02-21T21:58:52.829Z,49.05
2024-02-21T22:01:20.253Z,48.83
2024-02-21T22:03:48.105Z,50.95
2024-02-21T22:06:15.506Z,52.67
2024-02-21T22:08:47.151Z,51.45
2024-02-21T22:11:17.833Z,52.03
2024-02-21T22:13:45.849Z,55.88
2024-02-21T22:16:13.446Z,56.63
2024-02-21T22:18:43.355Z,54.97
2024-02-21T22:21:11.023Z,54.40
2024-02-21T22:23:40.490Z,54.58
2024-02-21T22:26:08.440Z,54.90
2024-02-21T22:28:35.919Z,59.30
2024-02-21T22:31:03.406Z,56.15
2024-02-21T22:33:30.920Z,56.70
2024-02-21T22:35:58.234Z,59.17
2024-02-21T22:38:25.838Z,55.58
2024-02-21T22:40:53.356Z,58.65
2024-02-21T22:43:20.800Z,55.78
2024-02-21T22:45:50.516Z,56.92
2024-02-21T22:48:17.904Z,55.47
2024-02-21T22:50:45.606Z,56.17
2024-02-21T22:53:13.206Z,55.38
2024-02-21T22:55:40.722Z,53.85
2024-02-21T22:58:08.067Z,50.75
2024-02-21T23:00:35.464Z,50.80
2024-02-21T23:03:02.893Z,53.15
2024-02-21T23:05:30.301Z,51.30
2024-02-21T23:07:57.847Z,53.22
2024-02-21T23:10:27.072Z,54.30
2024-02-21T23:12:55.450Z,58.85
2024-02-21T23:15:22.767Z,55.10
2024-02-21T23:17:50.243Z,55.38
2024-02-21T23:20:17.598Z,59.08
2024-02-21T23:22:45.158Z,53.63
2024-02-21T23:25:13.524Z,53.47
2024-02-21T23:27:41.947Z,55.65
2024-02-21T23:30:12.645Z,57.70
2024-02-21T23:32:41.957Z,56.20
2024-02-21T23:35:09.657Z,55.78
2024-02-21T23:37:37.280Z,54.28
2024-02-21T23:40:05.146Z,54.03
2024-02-21T23:42:32.858Z,53.83
2024-02-21T23:45:00.368Z,53.53
2024-02-21T23:47:27.754Z,58.22
2024-02-21T23:49:55.149Z,59.13
2024-02-21T23:52:22.564Z,58.75
2024-02-21T23:54:49.888Z,60.13
2024-02-21T23:57:17.215Z,60.28
2024-02-21T23:59:45.343Z,60.58
